Time;durP1;ratioP1;P1;durP2;ratioP2;P2;SDS_P1;SDS_P2;PMS_P1;PMS_P2;Temp;Humidity;BMP_temperature;BMP_pressure;BME280_temperature;BME280_humidity;BME280_pressure;Samples;Min_cycle;Max_cycle;Signal;HPM_P1;HPM_P2
2024/03/12 00:01:19;;;;;;;1.70;1.07;;;21.40;61.20;;;;;;5075063;28;20531;-84
2024/03/12 00:03:46;;;;;;;1.50;0.90;;;21.30;61.00;;;;;;5075234;28;20802;-83
2024/03/12 00:06:13;;;;;;;2.07;1.23;;;21.30;61.00;;;;;;5074710;28;20547;-84
2024/03/12 00:08:40;;;;;;;1.80;1.30;;;21.40;61.10;;;;;;5075941;28;20491;-85
2024/03/12 00:11:07;;;;;;;2.07;1.20;;;21.30;60.90;;;;;;5082395;28;20491;-85
2024/03/12 00:13:35;;;;;;;1.70;1.10;;;21.30;61.00;;;;;;5097476;28;20429;-84
2024/03/12 00:16:02;;;;;;;1.50;0.90;;;21.40;61.10;;;;;;5098494;28;20507;-84
2024/03/12 00:18:32;;;;;;;1.70;0.90;;;21.30;61.00;;;;;;5074548;28;20495;-83
2024/03/12 00:21:01;;;;;;;2.83;1.10;;;21.30;61.00;;;;;;5066690;28;20444;-84
2024/03/12 00:23:28;;;;;;;2.00;1.10;;;21.30;61.00;;;;;;5074293;28;20988;-84
2024/03/12 00:25:55;;;;;;;2.07;1.10;;;21.30;60.90;;;;;;5074459;28;20444;-91
2024/03/12 00:28:22;;;;;;;1.50;1.00;;;21.30;60.90;;;;;;5074368;28;20904;-84
2024/03/12 00:30:52;;;;;;;1.70;1.00;;;21.30;60.90;;;;;;5073980;28;20530;-83
2024/03/12 00:33:21;;;;;;;1.60;1.00;;;21.30;60.90;;;;;;5073746;28;20997;-89
2024/03/12 00:35:48;;;;;;;1.87;1.07;;;21.30;60.90;;;;;;5073848;28;20466;-84
2024/03/12 00:38:17;;;;;;;1.90;1.13;;;21.30;60.90;;;;;;5073946;28;20447;-83
2024/03/12 00:40:44;;;;;;;2.63;0.90;;;21.30;60.90;;;;;;5073568;28;20444;-83
2024/03/12 00:43:11;;;;;;;3.40;1.10;;;21.30;60.90;;;;;;5074281;28;20791;-84
2024/03/12 00:45:38;;;;;;;1.90;1.20;;;21.30;60.90;;;;;;5073785;28;20883;-90
2024/03/12 00:48:09;;;;;;;1.90;1.20;;;21.30;60.90;;;;;;5089529;28;20468;-84
2024/03/12 00:50:36;;;;;;;1.40;0.80;;;21.30;60.90;;;;;;5095437;28;20479;-83
2024/03/12 00:53:04;;;;;;;1.53;1.03;;;21.30;60.90;;;;;;5093168;28;20433;-83
2024/03/12 00:55:31;;;;;;;1.70;1.10;;;21.30;60.90;;;;;;5078497;28;20911;-85
2024/03/12 00:57:58;;;;;;;1.50;0.90;;;21.30;60.90;;;;;;5074060;28;20483;-83
2024/03/12 01:00:28;;;;;;;1.80;0.90;;;21.30;60.90;;;;;;5073435;28;20448;-83
2024/03/12 01:02:58;;;;;;;1.90;1.20;;;21.30;60.90;;;;;;5073306;28;20444;-83
2024/03/12 01:05:30;;;;;;;1.50;0.90;;;21.30;60.80;;;;;;5073295;28;20441;-89
2024/03/12 01:07:58;;;;;;;1.83;1.50;;;21.30;60.90;;;;;;5073264;28;20465;-83
2024/03/12 01:10:26;;;;;;;1.63;1.07;;;21.30;60.90;;;;;;5073214;28;20788;-83
2024/03/12 01:12:54;;;;;;;1.60;1.07;;;21.30;60.90;;;;;;5073511;28;20432;-90
2024/03/12 01:15:23;;;;;;;1.53;1.10;;;21.30;60.80;;;;;;5073736;28;20436;-83
2024/03/12 01:17:51;;;;;;;1.60;1.00;;;21.30;60.90;;;;;;5073898;28;20444;-90
2024/03/12 01:20:19;;;;;;;1.70;1.00;;;21.30;60.90;;;;;;5073539;28;20451;-84
2024/03/12 01:22:47;;;;;;;1.90;1.30;;;21.30;60.90;;;;;;5073608;28;20432;-86
2024/03/12 01:25:15;;;;;;;1.80;1.07;;;21.30;60.90;;;;;;5073588;28;20447;-84
2024/03/12 01:27:42;;;;;;;1.70;1.20;;;21.30;60.80;;;;;;5073406;28;20958;-84
2024/03/12 01:30:14;;;;;;;2.20;1.20;;;21.30;60.80;;;;;;5073424;28;21112;-90
2024/03/12 01:32:41;;;;;;;1.70;1.20;;;21.30;60.90;;;;;;5073498;28;20502;-91
2024/03/12 01:35:09;;;;;;;1.60;1.17;;;21.30;61.00;;;;;;5073709;28;20437;-84
2024/03/12 01:37:36;;;;;;;1.60;1.07;;;21.30;61.00;;;;;;5073078;28;20472;-85
2024/03/12 01:40:19;;;;;;;1.70;0.90;;;21.30;61.00;;;;;;5072913;28;20520;-87
2024/03/12 01:42:48;;;;;;;1.90;1.30;;;21.30;60.90;;;;;;5073474;28;20475;-84
2024/03/12 01:45:16;;;;;;;2.07;1.23;;;21.30;61.00;;;;;;5073141;28;20472;-84
2024/03/12 01:47:43;;;;;;;1.80;1.07;;;21.40;61.00;;;;;;5073040;28;20543;-84
2024/03/12 01:50:11;;;;;;;1.60;1.03;;;21.40;61.10;;;;;;5073393;28;20526;-84
2024/03/12 01:52:37;;;;;;;1.60;0.90;;;21.40;61.00;;;;;;5072959;28;20451;-91
2024/03/12 01:55:08;;;;;;;1.57;1.00;;;21.40;60.90;;;;;;5072715;28;20444;-84
2024/03/12 01:57:35;;;;;;;1.60;1.10;;;21.40;60.90;;;;;;5072893;28;20446;-84
2024/03/12 02:00:04;;;;;;;1.60;1.00;;;21.40;60.90;;;;;;5072637;28;20539;-86
2024/03/12 02:02:31;;;;;;;1.70;1.20;;;21.40;60.80;;;;;;5072867;28;20440;-85
2024/03/12 02:04:58;;;;;;;1.70;1.27;;;21.40;60.90;;;;;;5072961;28;20460;-90
2024/03/12 02:07:25;;;;;;;1.70;1.10;;;21.40;60.80;;;;;;5072655;28;20476;-83
2024/03/12 02:09:52;;;;;;;1.70;1.10;;;21.40;60.90;;;;;;5072693;28;20488;-83
2024/03/12 02:12:21;;;;;;;1.93;1.43;;;21.50;61.00;;;;;;5072982;28;20991;-89
2024/03/12 02:14:48;;;;;;;1.90;1.20;;;21.40;61.00;;;;;;5072561;28;20440;-84
2024/03/12 02:17:15;;;;;;;1.70;1.10;;;21.40;60.90;;;;;;5073160;28;20808;-90
2024/03/12 02:19:42;;;;;;;1.83;0.93;;;21.40;60.90;;;;;;5072807;28;20444;-84
2024/03/12 02:22:09;;;;;;;1.50;0.97;;;21.40;60.90;;;;;;5073340;28;20451;-83
2024/03/12 02:24:37;;;;;;;2.17;1.60;;;21.40;60.90;;;;;;5076607;28;20440;-86
2024/03/12 02:27:04;;;;;;;1.60;0.93;;;21.40;60.80;;;;;;5076598;28;20463;-89
2024/03/12 02:29:31;;;;;;;2.13;1.13;;;21.40;60.80;;;;;;5076280;28;20515;-83
2024/03/12 02:31:58;;;;;;;2.30;1.40;;;21.40;60.80;;;;;;5076427;28;20444;-83
2024/03/12 02:34:27;;;;;;;1.70;1.20;;;21.40;60.70;;;;;;5076578;28;20444;-84
2024/03/12 02:36:55;;;;;;;1.60;0.90;;;21.40;60.70;;;;;;5076801;28;20456;-83
2024/03/12 02:39:21;;;;;;;1.60;1.20;;;21.50;60.80;;;;;;5076562;28;20436;-85
2024/03/12 02:41:49;;;;;;;1.70;1.20;;;21.50;60.70;;;;;;5076355;28;20530;-90
2024/03/12 02:44:17;;;;;;;1.90;1.10;;;21.60;60.80;;;;;;5076460;28;20472;-90
2024/03/12 02:46:46;;;;;;;1.60;1.00;;;21.50;60.80;;;;;;5076660;28;20787;-89
2024/03/12 02:49:16;;;;;;;1.97;1.03;;;21.50;60.80;;;;;;5076342;28;21052;-84
2024/03/12 02:51:42;;;;;;;2.33;1.30;;;21.50;60.80;;;;;;5077377;28;20444;-90
2024/03/12 02:54:09;;;;;;;1.70;1.20;;;21.50;60.80;;;;;;5076605;28;20451;-84
2024/03/12 02:56:36;;;;;;;1.87;1.20;;;21.50;60.70;;;;;;5075894;28;20444;-82
2024/03/12 02:59:04;;;;;;;1.90;1.30;;;21.50;60.70;;;;;;5076133;28;20436;-83
2024/03/12 03:01:31;;;;;;;2.80;1.23;;;21.50;60.60;;;;;;5076588;28;20463;-88
2024/03/12 03:03:58;;;;;;;1.60;1.10;;;21.50;60.60;;;;;;5076736;28;20479;-83
2024/03/12 03:06:25;;;;;;;1.90;1.10;;;21.50;60.50;;;;;;5075681;28;21038;-88
2024/03/12 03:08:52;;;;;;;1.60;1.20;;;21.50;60.50;;;;;;5075567;28;20586;-83
2024/03/12 03:11:19;;;;;;;1.80;1.33;;;21.50;60.50;;;;;;5076316;28;20437;-90
2024/03/12 03:13:45;;;;;;;1.90;1.60;;;21.60;60.50;;;;;;5075837;28;20537;-90
2024/03/12 03:16:15;;;;;;;2.00;1.33;;;21.60;60.60;;;;;;5075786;28;20940;-87
2024/03/12 03:18:42;;;;;;;1.77;1.23;;;21.60;60.50;;;;;;5075779;28;20495;-90
2024/03/12 03:21:09;;;;;;;2.13;1.50;;;21.60;60.50;;;;;;5075788;28;20498;-82
2024/03/12 03:23:41;;;;;;;2.27;1.40;;;21.60;60.50;;;;;;5075895;28;20436;-85
2024/03/12 03:26:08;;;;;;;3.60;1.40;;;21.60;60.40;;;;;;5075711;28;20452;-89
2024/03/12 03:28:34;;;;;;;1.77;1.20;;;21.60;60.40;;;;;;5076046;28;20428;-91
2024/03/12 03:31:01;;;;;;;2.27;1.73;;;21.60;60.40;;;;;;5079867;28;20448;-91
2024/03/12 03:33:31;;;;;;;1.77;1.40;;;21.60;61.20;;;;;;5098159;28;20458;-87
2024/03/12 03:35:58;;;;;;;2.10;1.70;;;21.70;60.40;;;;;;5099601;28;20425;-88
2024/03/12 03:38:27;;;;;;;2.10;1.67;;;21.60;60.20;;;;;;5077307;28;20436;-88
2024/03/12 03:40:53;;;;;;;2.00;1.50;;;21.60;60.20;;;;;;5075733;28;20531;-89
2024/03/12 03:43:20;;;;;;;2.37;1.60;;;21.60;60.20;;;;;;5074905;28;20433;-84
2024/03/12 03:45:47;;;;;;;2.20;1.67;;;21.60;60.10;;;;;;5074730;28;20468;-83
2024/03/12 03:48:14;;;;;;;2.20;1.60;;;21.60;60.10;;;;;;5074677;28;20440;-83
2024/03/12 03:50:42;;;;;;;2.73;2.03;;;21.60;60.10;;;;;;5075366;28;20486;-83
2024/03/12 03:53:09;;;;;;;2.23;1.43;;;21.60;60.10;;;;;;5074945;28;20939;-83
2024/03/12 03:55:38;;;;;;;1.83;1.37;;;21.60;60.00;;;;;;5074689;28;20437;-87
2024/03/12 03:58:06;;;;;;;2.43;1.60;;;21.70;60.30;;;;;;5074773;28;20444;-82
2024/03/12 04:00:35;;;;;;;2.00;1.70;;;21.60;60.00;;;;;;5074674;28;20437;-84
2024/03/12 04:03:02;;;;;;;2.20;1.70;;;21.70;60.20;;;;;;5074856;28;20474;-83
2024/03/12 04:05:29;;;;;;;2.00;1.67;;;21.70;60.20;;;;;;5074465;28;20447;-90
2024/03/12 04:07:58;;;;;;;2.13;1.77;;;21.70;60.10;;;;;;5074769;28;20475;-89
2024/03/12 04:10:25;;;;;;;2.13;1.70;;;21.70;60.10;;;;;;5074233;28;20549;-88
2024/03/12 04:12:55;;;;;;;2.17;1.70;;;21.70;60.10;;;;;;5074452;28;20437;-83
2024/03/12 04:15:22;;;;;;;3.13;1.63;;;21.70;60.00;;;;;;5074872;28;20444;-86
2024/03/12 04:17:49;;;;;;;1.90;1.50;;;21.80;60.10;;;;;;5074267;28;20444;-88
2024/03/12 04:20:17;;;;;;;2.63;1.70;;;21.70;60.00;;;;;;5074312;28;20924;-88
2024/03/12 04:22:45;;;;;;;1.97;1.77;;;21.70;60.00;;;;;;5074640;28;20486;-83
2024/03/12 04:25:15;;;;;;;2.27;1.80;;;21.70;60.00;;;;;;5074174;28;20966;-90
2024/03/12 04:27:42;;;;;;;2.50;2.00;;;21.70;60.00;;;;;;5074010;28;20444;-90
2024/03/12 04:30:10;;;;;;;2.80;2.33;;;21.70;60.00;;;;;;5074159;28;20483;-84
2024/03/12 04:32:37;;;;;;;2.20;1.83;;;21.70;60.00;;;;;;5068051;28;20437;-86
2024/03/12 04:35:05;;;;;;;1.90;1.57;;;21.70;60.00;;;;;;5074451;28;20456;-82
2024/03/12 04:37:32;;;;;;;2.40;1.97;;;21.70;60.00;;;;;;5074116;28;20983;-85
2024/03/12 04:40:00;;;;;;;2.30;2.10;;;21.70;60.00;;;;;;5074575;28;20440;-91
2024/03/12 04:42:28;;;;;;;2.00;1.63;;;21.70;60.00;;;;;;5074081;28;20785;-82
2024/03/12 04:44:56;;;;;;;2.40;1.87;;;21.70;60.00;;;;;;5073893;28;20491;-86
2024/03/12 04:47:22;;;;;;;2.40;2.10;;;21.70;60.00;;;;;;5073725;28;20884;-84
2024/03/12 04:49:49;;;;;;;2.40;1.90;;;21.70;60.00;;;;;;5074525;28;20480;-90
2024/03/12 04:52:16;;;;;;;1.90;1.60;;;21.70;59.90;;;;;;5073508;28;20436;-89
2024/03/12 04:54:45;;;;;;;2.40;2.00;;;21.70;59.90;;;;;;5070630;28;20441;-90
2024/03/12 04:57:11;;;;;;;2.40;1.67;;;21.70;59.90;;;;;;5073614;28;20499;-84
2024/03/12 04:59:39;;;;;;;2.40;2.17;;;21.70;59.90;;;;;;5073766;28;20447;-91
2024/03/12 05:02:06;;;;;;;2.10;1.70;;;21.70;59.90;;;;;;5073878;28;20440;-84
2024/03/12 05:04:33;;;;;;;2.43;2.10;;;21.70;59.90;;;;;;5073321;28;20464;-82
2024/03/12 05:07:00;;;;;;;1.90;1.50;;;21.70;59.90;;;;;;5073151;28;20975;-82
2024/03/12 05:09:28;;;;;;;2.13;1.93;;;21.70;59.90;;;;;;5073058;28;20547;-83
2024/03/12 05:11:55;;;;;;;2.07;1.63;;;21.70;60.60;;;;;;5061487;28;20453;-83
2024/03/12 05:14:21;;;;;;;2.40;1.93;;;21.80;59.90;;;;;;5065022;28;20947;-82
2024/03/12 05:16:50;;;;;;;2.10;1.90;;;21.80;59.90;;;;;;5074674;28;20432;-83
2024/03/12 05:19:17;;;;;;;2.17;1.80;;;21.80;59.90;;;;;;5077918;28;20437;-85
2024/03/12 05:21:44;;;;;;;2.17;1.77;;;21.80;59.90;;;;;;5074211;28;20452;-83
2024/03/12 05:24:11;;;;;;;2.40;1.70;;;21.80;59.80;;;;;;5067249;28;20544;-84
2024/03/12 05:26:44;;;;;;;2.60;2.03;;;21.80;59.80;;;;;;5053405;28;20433;-85
2024/03/12 05:29:11;;;;;;;2.10;1.67;;;21.80;59.80;;;;;;5053408;28;20812;-84
2024/03/12 05:31:38;;;;;;;1.90;1.50;;;21.90;59.90;;;;;;5053610;28;20444;-84
2024/03/12 05:34:15;;;;;;;2.07;1.77;;;21.80;59.70;;;;;;5053840;28;20433;-84
2024/03/12 05:36:48;;;;;;;2.00;1.70;;;21.90;59.70;;;;;;5053137;28;20457;-85
2024/03/12 05:39:19;;;;;;;2.20;1.90;;;21.80;59.70;;;;;;5053625;28;20441;-84
2024/03/12 05:48:07;;;;;;;2.10;1.40;;;21.80;59.90;;;;;;5053628;28;20434;-84
2024/03/12 05:50:09;;;;;;;3.20;1.83;;;21.90;60.00;;;;;;5052901;28;20572;-85
2024/03/12 05:52:36;;;;;;;3.30;2.07;;;21.90;60.10;;;;;;5052914;28;20444;-84
2024/03/12 05:55:03;;;;;;;3.00;2.37;;;21.90;60.00;;;;;;5053325;28;20877;-85
2024/03/12 05:57:29;;;;;;;2.60;2.13;;;21.90;60.10;;;;;;5054643;28;20535;-84
2024/03/12 05:59:56;;;;;;;2.07;1.67;;;21.90;60.20;;;;;;5057183;28;20527;-84
2024/03/12 06:02:22;;;;;;;3.53;2.20;;;21.90;60.20;;;;;;5057614;28;20221;-85
2024/03/12 06:04:49;;;;;;;2.23;1.87;;;21.90;60.10;;;;;;5057107;28;20444;-84
2024/03/12 06:07:18;;;;;;;2.57;2.00;;;21.90;60.30;;;;;;5057274;28;20449;-84
2024/03/12 06:09:45;;;;;;;4.57;2.00;;;21.90;60.30;;;;;;5056897;28;20492;-84
2024/03/12 06:12:12;;;;;;;3.50;2.00;;;21.90;60.40;;;;;;5056883;28;20447;-83
2024/03/12 06:14:39;;;;;;;4.20;2.40;;;21.90;60.50;;;;;;5057578;28;20506;-84
2024/03/12 06:17:05;;;;;;;4.50;2.03;;;21.90;60.50;;;;;;5057463;28;20928;-84
2024/03/12 06:19:32;;;;;;;3.07;1.80;;;21.90;60.60;;;;;;5057188;28;20445;-84
2024/03/12 06:21:59;;;;;;;2.20;1.93;;;21.90;60.60;;;;;;5057426;28;20448;-84
2024/03/12 06:24:27;;;;;;;2.57;1.90;;;22.00;60.80;;;;;;5057030;28;20460;-84
2024/03/12 06:26:54;;;;;;;2.63;2.07;;;22.00;60.80;;;;;;5057389;28;20433;-83
2024/03/12 06:29:20;;;;;;;7.40;2.47;;;22.00;60.90;;;;;;5057309;28;20452;-89
2024/03/12 06:31:47;;;;;;;2.77;1.90;;;22.10;61.00;;;;;;5056563;28;20498;-83
2024/03/12 06:34:14;;;;;;;2.10;1.90;;;22.00;60.90;;;;;;5056584;28;20467;-83
2024/03/12 06:36:41;;;;;;;2.43;2.07;;;22.00;61.00;;;;;;5056795;28;20465;-82
2024/03/12 06:39:11;;;;;;;2.40;2.10;;;22.00;60.90;;;;;;5056923;28;20801;-83
2024/03/12 06:41:41;;;;;;;3.03;1.87;;;22.00;60.90;;;;;;5057192;28;20534;-83
2024/03/12 06:44:11;;;;;;;2.20;2.00;;;22.00;60.90;;;;;;5056197;28;20473;-83
2024/03/12 06:46:38;;;;;;;2.43;2.03;;;22.00;61.00;;;;;;5056346;28;20443;-83
2024/03/12 06:49:07;;;;;;;3.80;2.27;;;22.10;60.90;;;;;;5056073;28;20494;-83
2024/03/12 06:51:33;;;;;;;2.07;1.87;;;22.10;60.90;;;;;;5074275;28;20551;-83
2024/03/12 06:54:00;;;;;;;2.60;2.10;;;22.00;60.80;;;;;;5078486;28;20426;-83
2024/03/12 06:56:28;;;;;;;2.30;1.90;;;22.10;60.80;;;;;;5066402;28;20801;-84
2024/03/12 06:58:57;;;;;;;2.37;2.17;;;22.00;60.70;;;;;;5054763;28;20468;-81
2024/03/12 07:01:25;;;;;;;2.37;1.90;;;22.00;60.70;;;;;;5052681;28;20445;-81
2024/03/12 07:03:51;;;;;;;2.47;1.67;;;22.10;61.60;;;;;;5036771;28;20450;-79
2024/03/12 07:06:19;;;;;;;2.77;1.90;;;22.00;60.60;;;;;;5034608;28;20460;-79
2024/03/12 07:08:46;;;;;;;2.60;2.20;;;22.00;60.70;;;;;;5034449;28;20441;-79
2024/03/12 07:11:14;;;;;;;2.43;2.23;;;22.00;60.70;;;;;;5035892;28;20541;-78
2024/03/12 07:13:43;;;;;;;3.07;1.90;;;22.00;60.70;;;;;;5035834;28;20932;-78
2024/03/12 07:16:11;;;;;;;2.53;1.70;;;22.00;60.60;;;;;;5035858;28;20473;-86
2024/03/12 07:18:38;;;;;;;3.20;2.07;;;22.00;60.70;;;;;;5035858;28;20434;-78
2024/03/12 07:21:05;;;;;;;2.03;1.83;;;22.00;60.60;;;;;;5035922;28;20438;-79
2024/03/12 07:23:32;;;;;;;2.30;2.10;;;22.00;60.70;;;;;;5035578;28;20442;-79
2024/03/12 07:25:59;;;;;;;2.70;2.30;;;22.00;60.60;;;;;;5033621;28;20854;-79
2024/03/12 07:28:27;;;;;;;2.50;2.03;;;22.00;60.60;;;;;;5033537;28;20439;-79
2024/03/12 07:30:54;;;;;;;2.40;1.80;;;22.00;60.60;;;;;;5033190;28;20893;-78
2024/03/12 07:33:23;;;;;;;2.07;1.70;;;21.90;60.50;;;;;;5033313;28;20438;-79
2024/03/12 07:35:49;;;;;;;3.17;2.20;;;21.90;60.60;;;;;;5033345;28;20469;-79
2024/03/12 07:38:16;;;;;;;2.30;1.97;;;21.90;60.60;;;;;;5033203;28;20475;-78
2024/03/12 07:40:43;;;;;;;2.23;1.80;;;21.90;60.50;;;;;;5034944;28;20443;-79
2024/03/12 07:43:11;;;;;;;2.40;2.00;;;21.90;60.50;;;;;;5035003;28;20438;-85
2024/03/12 07:45:43;;;;;;;2.03;1.83;;;21.90;60.40;;;;;;5067598;28;20476;-80
2024/03/12 07:48:10;;;;;;;2.10;1.83;;;22.00;60.50;;;;;;5073461;28;20449;-79
2024/03/12 07:50:38;;;;;;;2.50;2.30;;;22.00;60.40;;;;;;5073957;28;20990;-80
2024/03/12 07:53:08;;;;;;;2.50;2.00;;;22.00;60.40;;;;;;5075169;28;20848;-79
2024/03/12 07:55:35;;;;;;;2.27;1.60;;;22.00;60.20;;;;;;5074964;28;20440;-86
2024/03/12 07:58:02;;;;;;;2.33;1.97;;;22.00;60.30;;;;;;5075300;28;20472;-79
2024/03/12 08:00:29;;;;;;;2.33;1.80;;;22.00;60.20;;;;;;5074942;28;20814;-79
2024/03/12 08:02:56;;;;;;;2.60;1.97;;;22.00;60.20;;;;;;5074867;28;20433;-86
2024/03/12 08:05:23;;;;;;;1.87;1.57;;;22.20;60.40;;;;;;5074849;28;20437;-84
2024/03/12 08:07:52;;;;;;;3.17;1.83;;;22.10;60.20;;;;;;5074001;28;20449;-83
2024/03/12 08:10:19;;;;;;;2.30;1.87;;;22.10;60.20;;;;;;5072590;28;20476;-80
2024/03/12 08:12:45;;;;;;;5.27;2.10;;;22.10;60.20;;;;;;5072744;28;20435;-78
2024/03/12 08:15:13;;;;;;;2.37;2.17;;;22.10;60.10;;;;;;5072593;28;20443;-79
2024/03/12 08:17:39;;;;;;;2.20;1.67;;;22.00;60.00;;;;;;5072889;28;20527;-85
2024/03/12 08:20:10;;;;;;;2.30;1.70;;;22.10;60.10;;;;;;5072303;28;20443;-80
2024/03/12 08:22:38;;;;;;;2.53;1.80;;;22.10;60.10;;;;;;5072775;28;20444;-80
2024/03/12 08:25:07;;;;;;;2.77;1.93;;;22.10;60.00;;;;;;5074626;28;20487;-84
2024/03/12 08:27:34;;;;;;;2.53;1.57;;;22.10;60.00;;;;;;5074577;28;20939;-78
2024/03/12 08:30:02;;;;;;;2.30;2.00;;;22.10;60.00;;;;;;5074450;28;20429;-79
2024/03/12 08:32:31;;;;;;;2.30;1.83;;;22.10;60.00;;;;;;5074661;28;20447;-79
2024/03/12 08:34:57;;;;;;;2.20;1.70;;;22.10;60.00;;;;;;5066544;28;20535;-85
2024/03/12 08:37:24;;;;;;;2.07;1.70;;;22.10;59.90;;;;;;5074189;28;20452;-86
2024/03/12 08:39:52;;;;;;;2.07;1.53;;;22.10;59.90;;;;;;5074113;28;20432;-85
2024/03/12 08:42:21;;;;;;;2.40;1.90;;;22.10;59.90;;;;;;5074314;28;20833;-79
2024/03/12 08:44:47;;;;;;;3.30;2.10;;;22.10;59.90;;;;;;5074214;28;20472;-86
2024/03/12 08:47:14;;;;;;;2.87;2.40;;;22.10;59.90;;;;;;5074538;28;20799;-86
2024/03/12 08:49:41;;;;;;;2.67;2.13;;;22.20;60.00;;;;;;5074021;28;20781;-80
2024/03/12 08:52:08;;;;;;;1.90;1.60;;;22.10;59.90;;;;;;5074368;28;20484;-86
2024/03/12 08:54:35;;;;;;;2.30;1.97;;;22.20;59.90;;;;;;5074161;28;20432;-78
2024/03/12 08:57:02;;;;;;;2.17;1.97;;;22.30;60.00;;;;;;5074077;28;20439;-83
2024/03/12 08:59:30;;;;;;;3.63;2.53;;;22.30;60.80;;;;;;5073654;28;20436;-86
2024/03/12 09:01:59;;;;;;;3.60;2.07;;;22.20;59.80;;;;;;5066246;28;20505;-86
2024/03/12 09:04:30;;;;;;;2.57;2.00;;;22.30;59.90;;;;;;5073634;28;20432;-78
2024/03/12 09:06:57;;;;;;;2.30;1.87;;;22.30;59.80;;;;;;5073700;28;20484;-85
2024/03/12 09:09:26;;;;;;;2.10;1.83;;;22.30;59.80;;;;;;5073668;28;20433;-78
2024/03/12 09:11:53;;;;;;;2.00;1.70;;;22.30;59.80;;;;;;5073833;28;20479;-85
2024/03/12 09:14:21;;;;;;;2.13;1.70;;;22.30;59.80;;;;;;5073623;28;20966;-78
2024/03/12 09:16:49;;;;;;;2.70;2.20;;;22.30;59.80;;;;;;5073671;28;20440;-80
2024/03/12 09:19:16;;;;;;;2.10;1.80;;;22.30;59.80;;;;;;5073554;28;20539;-86
2024/03/12 09:21:43;;;;;;;3.03;2.10;;;22.40;59.80;;;;;;5073536;28;20447;-79
2024/03/12 09:24:10;;;;;;;2.47;1.93;;;22.30;59.70;;;;;;5073574;28;20452;-79
2024/03/12 09:26:37;;;;;;;2.70;2.03;;;22.30;59.70;;;;;;5073567;28;20470;-79
2024/03/12 09:29:05;;;;;;;2.77;2.00;;;22.30;59.80;;;;;;5073617;28;20982;-79
2024/03/12 09:31:33;;;;;;;2.20;2.00;;;22.30;59.80;;;;;;5072919;28;20519;-85
2024/03/12 09:34:01;;;;;;;2.70;2.00;;;22.30;59.80;;;;;;5073630;28;20853;-86
2024/03/12 09:36:27;;;;;;;2.43;2.00;;;22.30;59.80;;;;;;5073823;28;20518;-86
2024/03/12 09:38:54;;;;;;;2.10;1.90;;;22.30;59.80;;;;;;5073672;28;20448;-79
2024/03/12 09:41:23;;;;;;;2.40;2.07;;;22.30;59.80;;;;;;5073324;28;20787;-84
2024/03/12 09:43:52;;;;;;;3.90;2.23;;;22.30;59.80;;;;;;5084599;28;20424;-82
2024/03/12 09:46:20;;;;;;;2.70;2.10;;;22.30;59.70;;;;;;5092140;28;20504;-80
2024/03/12 09:48:49;;;;;;;2.60;1.83;;;22.30;59.70;;;;;;5091339;28;20496;-84
2024/03/12 09:51:17;;;;;;;2.57;2.27;;;22.30;59.60;;;;;;5079397;28;20476;-86
2024/03/12 09:53:46;;;;;;;2.20;1.80;;;22.40;59.70;;;;;;5073324;28;20969;-85
2024/03/12 09:56:16;;;;;;;2.90;2.37;;;22.30;59.60;;;;;;5073504;28;20502;-85
2024/03/12 09:58:44;;;;;;;1.93;1.73;;;22.30;60.30;;;;;;5073267;28;20441;-82
2024/03/12 10:01:12;;;;;;;2.70;2.37;;;22.30;59.60;;;;;;5073150;28;20480;-78
2024/03/12 10:03:39;;;;;;;3.20;1.80;;;22.30;59.60;;;;;;5073411;28;20444;-85
2024/03/12 10:06:06;;;;;;;2.33;2.13;;;22.30;59.60;;;;;;5073310;28;20551;-78
2024/03/12 10:08:35;;;;;;;2.60;2.23;;;22.30;59.60;;;;;;5081020;28;20443;-78
2024/03/12 10:11:02;;;;;;;3.10;2.47;;;22.30;59.60;;;;;;5085118;28;20482;-78
2024/03/12 10:13:29;;;;;;;2.20;1.90;;;22.30;59.60;;;;;;5080118;28;20441;-85
2024/03/12 10:15:58;;;;;;;2.80;2.10;;;22.30;59.60;;;;;;5073648;28;20459;-86
2024/03/12 10:18:27;;;;;;;2.10;1.87;;;22.30;59.60;;;;;;5073224;28;20436;-85
2024/03/12 10:20:55;;;;;;;2.20;1.97;;;22.30;59.60;;;;;;5073023;28;20494;-78
2024/03/12 10:23:25;;;;;;;2.87;2.27;;;22.30;59.60;;;;;;5073222;28;20439;-85
2024/03/12 10:25:53;;;;;;;2.60;2.30;;;22.30;59.60;;;;;;5073041;28;20506;-85
2024/03/12 10:28:26;;;;;;;2.13;1.83;;;22.30;59.60;;;;;;5073099;28;20791;-85
2024/03/12 10:30:54;;;;;;;2.73;2.10;;;22.30;59.60;;;;;;5072786;28;20861;-85
2024/03/12 10:33:21;;;;;;;2.70;2.23;;;22.30;59.60;;;;;;5073038;28;20483;-87
2024/03/12 10:35:50;;;;;;;2.10;1.73;;;22.40;59.70;;;;;;5073129;28;20456;-86
2024/03/12 10:38:27;;;;;;;2.63;2.10;;;22.30;59.60;;;;;;5072968;28;20437;-86
2024/03/12 10:40:56;;;;;;;2.03;1.70;;;22.30;59.60;;;;;;5072642;28;20446;-81
2024/03/12 10:43:25;;;;;;;2.80;2.50;;;22.30;59.60;;;;;;5074378;28;20464;-80
2024/03/12 10:45:53;;;;;;;2.60;2.23;;;22.30;59.60;;;;;;5076498;28;20457;-83
2024/03/12 10:48:21;;;;;;;2.33;2.07;;;22.30;59.60;;;;;;5076462;28;20483;-79
2024/03/12 10:50:48;;;;;;;2.90;2.57;;;22.30;59.60;;;;;;5076208;28;20440;-79
2024/03/12 10:53:16;;;;;;;2.83;2.10;;;22.30;59.70;;;;;;5076428;28;20515;-79
2024/03/12 10:55:43;;;;;;;2.57;2.13;;;22.30;59.60;;;;;;5076196;28;20444;-86
2024/03/12 10:58:14;;;;;;;2.43;2.20;;;22.30;59.70;;;;;;5076380;28;20439;-86
2024/03/12 11:00:44;;;;;;;2.07;1.87;;;22.30;59.70;;;;;;5076487;28;20454;-85
2024/03/12 11:03:13;;;;;;;2.00;1.80;;;22.30;59.70;;;;;;5076422;28;20830;-84
2024/03/12 11:05:42;;;;;;;2.80;2.23;;;22.30;59.70;;;;;;5076205;28;20543;-84
2024/03/12 11:08:10;;;;;;;2.50;2.30;;;22.30;59.70;;;;;;5076281;28;20479;-86
2024/03/12 11:10:38;;;;;;;2.83;2.20;;;22.30;59.70;;;;;;5075995;28;20441;-86
2024/03/12 11:13:06;;;;;;;3.67;1.87;;;22.30;59.70;;;;;;5075987;28;21020;-87
2024/03/12 11:15:35;;;;;;;3.60;2.37;;;22.30;59.60;;;;;;5075854;28;20476;-85
2024/03/12 11:18:05;;;;;;;2.30;2.07;;;22.30;59.60;;;;;;5075969;28;20938;-80
2024/03/12 11:20:33;;;;;;;2.57;1.70;;;22.30;59.50;;;;;;5075739;28;20472;-86
2024/03/12 11:23:01;;;;;;;2.50;2.03;;;22.40;59.60;;;;;;5075677;28;20444;-79
2024/03/12 11:25:32;;;;;;;2.47;2.23;;;22.30;59.50;;;;;;5075665;28;20443;-80
2024/03/12 11:28:19;;;;;;;2.83;2.10;;;22.40;59.50;;;;;;5075791;28;20519;-79
2024/03/12 11:30:48;;;;;;;2.40;2.20;;;22.40;59.50;;;;;;5075528;28;20441;-87
2024/03/12 11:33:42;;;;;;;2.50;1.87;;;22.40;59.50;;;;;;5075578;28;20510;-80
2024/03/12 11:36:10;;;;;;;2.60;1.93;;;22.40;59.50;;;;;;5069418;28;20456;-87
2024/03/12 11:38:37;;;;;;;2.57;2.30;;;22.30;59.50;;;;;;5075534;28;20447;-79
2024/03/12 11:41:04;;;;;;;2.60;2.30;;;22.40;59.50;;;;;;5075347;28;20437;-87
2024/03/12 11:43:37;;;;;;;2.23;1.90;;;22.40;59.50;;;;;;5075578;28;20439;-86
2024/03/12 11:46:06;;;;;;;2.33;2.13;;;22.30;59.40;;;;;;5075255;28;20468;-86
2024/03/12 11:48:35;;;;;;;2.17;1.90;;;22.30;59.50;;;;;;5075139;28;20947;-79
2024/03/12 11:51:03;;;;;;;2.93;1.97;;;22.30;59.50;;;;;;5074866;28;20448;-80
2024/03/12 11:53:31;;;;;;;2.57;2.17;;;22.40;59.50;;;;;;5075486;28;20547;-79
2024/03/12 11:56:00;;;;;;;2.83;2.23;;;22.40;59.50;;;;;;5074688;28;20433;-87
2024/03/12 11:58:28;;;;;;;2.27;2.07;;;22.40;59.50;;;;;;5075044;28;20447;-79
2024/03/12 12:00:55;;;;;;;2.73;2.30;;;22.40;59.50;;;;;;5075012;28;20428;-83
2024/03/12 12:03:24;;;;;;;2.70;2.30;;;22.30;59.40;;;;;;5075009;28;20468;-80
2024/03/12 12:05:52;;;;;;;2.00;1.60;;;22.40;59.50;;;;;;5074946;28;20854;-79
2024/03/12 12:08:19;;;;;;;2.40;1.93;;;22.40;59.50;;;;;;5074871;28;20448;-79
2024/03/12 12:11:00;;;;;;;2.60;2.40;;;22.40;59.50;;;;;;5074796;28;20834;-79
2024/03/12 12:13:27;;;;;;;3.07;2.40;;;22.40;59.50;;;;;;5074896;28;20530;-79
2024/03/12 12:16:01;;;;;;;2.53;2.33;;;22.40;59.50;;;;;;5066539;28;20445;-79
2024/03/12 12:18:31;;;;;;;3.03;2.67;;;22.40;59.50;;;;;;5074767;28;20431;-80
2024/03/12 12:21:01;;;;;;;2.63;2.27;;;22.40;59.50;;;;;;5074623;28;20440;-86
2024/03/12 12:23:28;;;;;;;2.53;2.10;;;22.40;59.50;;;;;;5074670;28;20830;-80
2024/03/12 12:25:57;;;;;;;2.43;2.23;;;22.30;59.50;;;;;;5074579;28;20437;-80
2024/03/12 12:28:26;;;;;;;2.40;2.20;;;22.30;59.50;;;;;;5073518;28;20606;-80
2024/03/12 12:30:55;;;;;;;2.60;2.17;;;22.30;59.50;;;;;;5071275;28;20456;-79
2024/03/12 12:33:24;;;;;;;2.87;2.37;;;22.30;59.50;;;;;;5071862;28;20492;-79
2024/03/12 12:35:55;;;;;;;2.90;2.30;;;22.30;59.50;;;;;;5073602;28;20983;-79
2024/03/12 12:38:23;;;;;;;2.83;2.40;;;22.30;59.50;;;;;;5066639;28;20448;-79
2024/03/12 12:40:50;;;;;;;4.97;2.60;;;22.30;59.50;;;;;;5073307;28;20506;-79
2024/03/12 12:43:19;;;;;;;2.57;2.27;;;22.30;59.50;;;;;;5074075;28;20436;-80
2024/03/12 12:45:46;;;;;;;2.37;2.07;;;22.30;59.60;;;;;;5074183;28;20476;-79
2024/03/12 12:48:13;;;;;;;2.20;1.87;;;22.30;59.70;;;;;;5069880;28;20969;-83
2024/03/12 12:50:39;;;;;;;2.93;1.90;;;22.40;59.70;;;;;;5071525;28;20445;-80
2024/03/12 12:53:09;;;;;;;2.63;2.43;;;22.40;59.70;;;;;;5073274;28;20990;-79
2024/03/12 12:55:38;;;;;;;2.63;2.37;;;22.40;59.70;;;;;;5071498;28;20441;-80
2024/03/12 12:58:06;;;;;;;2.90;2.53;;;22.40;59.70;;;;;;5073165;28;20452;-79